Time;durP1;ratioP1;P1;durP2;ratioP2;P2;SDS_P1;SDS_P2;PMS_P1;PMS_P2;Temp;Humidity;BMP_temperature;BMP_pressure;BME280_temperature;BME280_humidity;BME280_pressure;Samples;Min_cycle;Max_cycle;Signal;HPM_P1;HPM_P2
2024/03/05 00:00:10;;;;;;;133.37;32.27;;;;;;;7.35;95.06;95108.97;5014548;28;20190;-82
2024/03/05 00:02:38;;;;;;;124.00;34.20;;;;;;;7.42;94.42;95110.06;5011209;28;20309;-83
2024/03/05 00:05:03;;;;;;;85.90;33.47;;;;;;;7.50;94.51;95115.31;5007798;28;20214;-83
2024/03/05 00:07:29;;;;;;;81.67;35.17;;;;;;;7.56;94.24;95116.53;5018208;28;20214;-83
2024/03/05 00:09:54;;;;;;;95.83;38.17;;;;;;;7.39;94.76;95115.47;5030524;28;20193;-82
2024/03/05 00:12:20;;;;;;;91.47;35.83;;;;;;;7.45;94.86;95116.72;5016866;28;20209;-83
2024/03/05 00:14:45;;;;;;;82.90;34.30;;;;;;;7.51;94.24;95116.13;5018661;28;20211;-83
2024/03/05 00:17:12;;;;;;;85.60;33.50;;;;;;;7.60;94.27;95123.88;5010385;28;20198;-83
2024/03/05 00:19:37;;;;;;;85.93;34.60;;;;;;;7.56;93.71;95117.34;5004413;28;20659;-82
2024/03/05 00:22:03;;;;;;;80.70;33.17;;;;;;;7.50;94.26;95117.09;5014740;28;20241;-83
2024/03/05 00:24:28;;;;;;;82.03;36.13;;;;;;;7.47;94.01;95120.78;5009447;28;20907;-82
2024/03/05 00:26:53;;;;;;;77.23;32.23;;;;;;;7.51;94.21;95129.91;5017872;28;20209;-83
2024/03/05 00:29:19;;;;;;;77.20;31.07;;;;;;;7.49;94.11;95124.03;5022086;28;20182;-83
2024/03/05 00:31:44;;;;;;;70.90;32.47;;;;;;;7.58;93.99;95130.13;5016173;28;20222;-83
2024/03/05 00:34:09;;;;;;;75.40;33.10;;;;;;;7.60;93.92;95129.06;5026761;28;20189;-84
2024/03/05 00:36:35;;;;;;;81.10;34.13;;;;;;;7.62;93.60;95131.50;5026317;28;20220;-83
2024/03/05 00:39:00;;;;;;;79.63;33.97;;;;;;;7.64;94.16;95129.56;5027864;28;20217;-83
2024/03/05 00:41:25;;;;;;;80.30;33.93;;;;;;;7.65;93.71;95126.84;5022406;28;20265;-83
2024/03/05 00:43:52;;;;;;;75.97;33.33;;;;;;;7.61;93.08;95130.69;5021940;28;20226;-83
2024/03/05 00:46:17;;;;;;;67.10;31.33;;;;;;;7.62;93.36;95134.06;5016817;28;20207;-83
2024/03/05 00:48:42;;;;;;;68.37;31.17;;;;;;;7.72;93.50;95136.63;5020994;28;20187;-84
2024/03/05 00:51:08;;;;;;;76.97;33.07;;;;;;;7.74;93.42;95134.72;5027137;28;20249;-83
2024/03/05 00:53:34;;;;;;;75.10;30.80;;;;;;;7.69;93.08;95132.56;5023297;28;20187;-83
2024/03/05 00:55:59;;;;;;;73.40;32.40;;;;;;;7.67;93.08;95134.47;5025560;28;20282;-83
2024/03/05 00:58:24;;;;;;;72.00;32.33;;;;;;;7.62;93.09;95137.47;5026118;28;20195;-83
2024/03/05 01:00:50;;;;;;;74.37;32.27;;;;;;;7.58;93.41;95136.09;5033431;28;20194;-84
2024/03/05 01:03:15;;;;;;;62.40;31.03;;;;;;;7.62;93.09;95137.47;5026905;28;20206;-83
2024/03/05 01:05:42;;;;;;;62.20;30.87;;;;;;;7.56;93.22;95130.28;5023709;28;20265;-84
2024/03/05 01:08:07;;;;;;;66.57;30.10;;;;;;;7.52;93.04;95130.69;5026566;28;20182;-83
2024/03/05 01:10:33;;;;;;;65.53;30.40;;;;;;;7.56;93.42;95132.84;5036797;28;20222;-83
2024/03/05 01:12:58;;;;;;;65.43;29.67;;;;;;;7.59;92.70;95137.72;5023210;28;20182;-83
2024/03/05 01:15:23;;;;;;;78.90;31.97;;;;;;;7.55;93.15;95138.16;5029070;28;20232;-83
2024/03/05 01:17:49;;;;;;;60.03;28.60;;;;;;;7.64;93.09;95132.97;5021126;28;20210;-84
2024/03/05 01:20:18;;;;;;;64.40;30.40;;;;;;;7.62;92.83;95132.31;5021199;28;20209;-83
2024/03/05 01:22:44;;;;;;;65.03;29.50;;;;;;;7.63;92.76;95128.75;5013968;28;20685;-83
2024/03/05 01:25:10;;;;;;;60.50;28.90;;;;;;;7.71;92.66;95127.25;5013121;28;20221;-83
2024/03/05 01:27:36;;;;;;;64.27;29.40;;;;;;;7.67;92.10;95130.09;5009770;28;20267;-84
2024/03/05 01:30:01;;;;;;;71.87;30.17;;;;;;;7.64;92.38;95129.56;5023600;28;20616;-83
2024/03/05 01:32:28;;;;;;;68.20;29.77;;;;;;;7.65;92.49;95129.44;5010658;28;20756;-83
2024/03/05 01:34:55;;;;;;;67.00;29.73;;;;;;;7.72;92.26;95126.31;5010627;28;20517;-83
2024/03/05 01:37:21;;;;;;;65.23;31.77;;;;;;;7.64;92.50;95121.81;5020367;28;20183;-83
2024/03/05 01:39:46;;;;;;;65.80;29.90;;;;;;;7.62;92.41;95119.38;5017133;28;20193;-83
2024/03/05 01:42:12;;;;;;;66.93;28.73;;;;;;;7.64;91.99;95125.22;5017557;28;20189;-83
2024/03/05 01:44:38;;;;;;;55.53;28.30;;;;;;;7.64;92.18;95121.81;5003888;28;20257;-83
2024/03/05 01:47:04;;;;;;;57.80;27.13;;;;;;;7.77;91.70;95126.69;5014936;28;20656;-83
2024/03/05 01:49:30;;;;;;;53.73;28.10;;;;;;;7.74;91.50;95125.19;5007186;28;20190;-83
2024/03/05 01:51:56;;;;;;;62.60;30.10;;;;;;;7.70;91.97;95123.03;5013526;28;20183;-83
2024/03/05 01:54:22;;;;;;;57.53;27.53;;;;;;;7.76;91.40;95120.69;5014625;28;20260;-83
2024/03/05 01:56:50;;;;;;;56.37;28.23;;;;;;;7.73;91.13;95117.59;5015393;28;20207;-84
2024/03/05 01:59:16;;;;;;;61.70;27.70;;;;;;;7.62;91.79;95116.81;5022366;28;20183;-83
2024/03/05 02:01:43;;;;;;;51.50;26.60;;;;;;;7.72;91.26;95115.97;5004501;28;20175;-83
2024/03/05 02:04:09;;;;;;;53.67;26.77;;;;;;;7.61;91.35;95117.75;5025616;28;20219;-83
2024/03/05 02:06:35;;;;;;;52.33;26.70;;;;;;;7.66;91.09;95112.16;5019945;28;20195;-83
2024/03/05 02:09:00;;;;;;;49.33;26.03;;;;;;;7.69;91.05;95111.91;5007397;28;20194;-83
2024/03/05 02:11:26;;;;;;;52.13;25.10;;;;;;;7.67;90.97;95109.44;5013616;28;20186;-83
2024/03/05 02:13:51;;;;;;;56.43;26.37;;;;;;;7.63;90.80;95105.50;5015799;28;20190;-83
2024/03/05 02:16:17;;;;;;;53.50;26.00;;;;;;;7.63;90.84;95112.44;5022997;28;20203;-83
2024/03/05 02:18:42;;;;;;;54.97;25.90;;;;;;;7.55;90.76;95118.31;5024796;28;20840;-83
2024/03/05 02:21:07;;;;;;;53.00;25.10;;;;;;;7.48;91.49;95124.16;5007032;28;20187;-83
2024/03/05 02:23:33;;;;;;;51.80;25.57;;;;;;;7.53;91.24;95115.06;5005425;28;20205;-83
2024/03/05 02:26:00;;;;;;;49.27;24.73;;;;;;;7.48;91.36;95119.81;5018260;28;20242;-83
2024/03/05 02:28:26;;;;;;;51.87;26.27;;;;;;;7.44;91.74;95115.91;5019639;28;20183;-83
2024/03/05 02:30:51;;;;;;;58.37;26.80;;;;;;;7.50;91.48;95120.47;5020659;28;20206;-83
2024/03/05 02:33:16;;;;;;;56.07;26.17;;;;;;;7.51;91.45;95119.56;5015618;28;20186;-83
2024/03/05 02:35:42;;;;;;;52.13;25.50;;;;;;;7.38;91.66;95119.84;5001942;28;20213;-83
2024/03/05 02:38:07;;;;;;;50.63;25.27;;;;;;;7.54;90.93;95124.44;5011847;28;20197;-83
2024/03/05 02:40:33;;;;;;;51.00;24.57;;;;;;;7.52;90.94;95125.53;5024681;28;20411;-83
2024/03/05 02:42:58;;;;;;;50.07;25.03;;;;;;;7.47;91.26;95119.97;5021280;28;20242;-83
2024/03/05 02:45:24;;;;;;;51.20;25.50;;;;;;;7.47;91.07;95118.19;5022351;28;20221;-83
2024/03/05 02:47:49;;;;;;;50.60;25.17;;;;;;;7.50;90.92;95119.66;5016897;28;20193;-83
2024/03/05 02:50:15;;;;;;;46.33;24.17;;;;;;;7.47;90.96;95125.94;5022203;28;20769;-82
2024/03/05 02:52:40;;;;;;;55.43;25.07;;;;;;;7.52;91.15;95121.19;5006942;28;20191;-84
2024/03/05 02:55:10;;;;;;;42.90;23.30;;;;;;;7.44;91.19;95122.84;5018987;28;20217;-83
2024/03/05 02:57:44;;;;;;;48.57;25.73;;;;;;;7.37;91.66;95125.97;5015552;28;20249;-83
2024/03/05 03:00:13;;;;;;;55.63;25.27;;;;;;;7.43;91.08;95132.34;5009119;28;20191;-83
2024/03/05 03:02:38;;;;;;;50.53;25.37;;;;;;;7.40;91.43;95137.78;5016477;28;20214;-83
2024/03/05 03:05:05;;;;;;;46.80;23.97;;;;;;;7.44;91.27;95133.97;5020930;28;20273;-83
2024/03/05 03:07:30;;;;;;;52.30;25.13;;;;;;;7.41;91.28;95136.81;5011375;28;20300;-83
2024/03/05 03:09:56;;;;;;;48.73;24.73;;;;;;;7.43;90.86;95145.25;5024486;28;20211;-84
2024/03/05 03:12:22;;;;;;;44.63;23.30;;;;;;;7.46;90.91;95136.41;5017743;28;20208;-83
2024/03/05 03:14:47;;;;;;;46.10;23.40;;;;;;;7.44;91.18;95136.56;5010154;28;20214;-83
2024/03/05 03:17:12;;;;;;;45.23;23.53;;;;;;;7.43;90.96;95132.34;5012445;28;20199;-83
2024/03/05 03:19:38;;;;;;;44.57;22.63;;;;;;;7.36;90.96;95142.41;5004335;28;20222;-83
2024/03/05 03:22:04;;;;;;;45.00;22.43;;;;;;;7.15;92.12;95151.25;5013786;28;20186;-83
2024/03/05 03:24:29;;;;;;;42.17;23.47;;;;;;;7.23;92.01;95144.44;5015929;28;20551;-83
2024/03/05 03:26:54;;;;;;;43.07;21.07;;;;;;;7.22;92.12;95152.34;5005537;28;20209;-83
2024/03/05 03:29:20;;;;;;;45.93;24.03;;;;;;;7.32;91.74;95142.81;5012458;28;20586;-83
2024/03/05 03:31:48;;;;;;;46.23;24.20;;;;;;;7.36;91.38;95157.09;5011464;28;20195;-83
2024/03/05 03:34:17;;;;;;;44.60;24.00;;;;;;;7.29;91.77;95153.44;5005812;28;20577;-83
2024/03/05 03:36:43;;;;;;;39.80;23.80;;;;;;;7.35;91.73;95153.69;5016288;28;20248;-83
2024/03/05 03:39:11;;;;;;;40.87;22.33;;;;;;;7.39;91.34;95146.47;5025983;28;20198;-83
2024/03/05 03:41:39;;;;;;;41.07;21.67;;;;;;;7.47;90.89;95159.53;5006341;28;20211;-83
2024/03/05 03:44:05;;;;;;;45.27;22.63;;;;;;;7.30;92.17;95155.88;5021458;28;20218;-83
2024/03/05 03:46:30;;;;;;;40.83;21.10;;;;;;;7.12;92.12;95160.09;5002313;28;20679;-83
2024/03/05 03:48:55;;;;;;;40.30;21.30;;;;;;;7.13;92.04;95159.13;5003779;28;20195;-83
2024/03/05 03:51:21;;;;;;;41.63;21.70;;;;;;;7.19;91.85;95158.59;5024072;28;20182;-83
2024/03/05 03:53:47;;;;;;;34.50;19.83;;;;;;;7.31;91.49;95164.44;5012426;28;20209;-83
2024/03/05 03:56:12;;;;;;;39.97;21.00;;;;;;;7.20;91.69;95169.75;5006622;28;20285;-83
2024/03/05 03:58:41;;;;;;;38.83;20.70;;;;;;;7.28;91.50;95164.72;5006037;28;20202;-83
2024/03/05 04:01:07;;;;;;;42.93;21.30;;;;;;;7.26;91.51;95164.84;5021118;28;20198;-83
2024/03/05 04:03:32;;;;;;;36.77;20.13;;;;;;;7.17;91.97;95163.09;5023852;28;20211;-83
2024/03/05 04:05:59;;;;;;;38.03;20.70;;;;;;;7.30;91.19;95165.38;5022163;28;20214;-83
2024/03/05 04:08:24;;;;;;;37.77;20.67;;;;;;;7.35;91.22;95168.38;5010016;28;20569;-83
2024/03/05 04:10:49;;;;;;;36.47;19.77;;;;;;;7.24;91.53;95168.50;5003557;28;20210;-83
2024/03/05 04:13:17;;;;;;;41.13;20.50;;;;;;;7.13;92.28;95176.41;5025283;28;20197;-83
2024/03/05 04:15:42;;;;;;;34.90;20.43;;;;;;;7.14;91.73;95170.28;5009477;28;20218;-83
2024/03/05 04:18:08;;;;;;;38.33;19.23;;;;;;;7.31;91.26;95177.34;5012288;28;20197;-83
2024/03/05 04:20:33;;;;;;;36.87;19.63;;;;;;;7.31;91.15;95174.75;5003432;28;20191;-82
2024/03/05 04:22:58;;;;;;;37.20;19.40;;;;;;;7.29;91.66;95174.09;5019005;28;20265;-83
2024/03/05 04:25:30;;;;;;;36.83;18.93;;;;;;;7.30;91.16;95165.38;5021318;28;20297;-82
2024/03/05 04:27:56;;;;;;;37.80;18.67;;;;;;;7.26;91.05;95166.63;5013675;28;20608;-83
2024/03/05 04:30:23;;;;;;;32.80;18.97;;;;;;;7.29;91.31;95174.09;5016332;28;20187;-83
2024/03/05 04:32:49;;;;;;;36.07;19.00;;;;;;;7.30;91.08;95171.38;5013451;28;20267;-82
2024/03/05 04:35:18;;;;;;;34.67;19.93;;;;;;;7.35;90.81;95176.13;5008389;28;20222;-83
2024/03/05 04:37:44;;;;;;;36.80;19.63;;;;;;;7.29;90.95;95187.81;5005367;28;20195;-83
2024/03/05 04:40:10;;;;;;;33.37;19.53;;;;;;;7.35;91.01;95181.31;5019960;28;20217;-83
2024/03/05 04:42:41;;;;;;;34.33;18.30;;;;;;;7.38;90.61;95183.59;5021331;28;20718;-82
2024/03/05 04:45:07;;;;;;;35.63;19.90;;;;;;;7.34;90.65;95188.25;5020098;28;20981;-83
2024/03/05 04:47:33;;;;;;;38.90;20.43;;;;;;;7.26;91.16;95187.28;5025058;28;20556;-83
2024/03/05 04:49:58;;;;;;;36.00;18.87;;;;;;;7.35;91.13;95192.44;5013737;28;20221;-83
2024/03/05 04:52:23;;;;;;;34.90;19.73;;;;;;;7.35;90.91;95186.47;5022544;28;20194;-82
2024/03/05 04:54:49;;;;;;;36.33;19.80;;;;;;;7.33;91.03;95185.75;5011197;28;20616;-82
2024/03/05 04:57:14;;;;;;;36.50;19.60;;;;;;;7.31;91.10;95195.44;5015026;28;20216;-83
2024/03/05 04:59:41;;;;;;;36.70;20.07;;;;;;;7.32;91.25;95191.88;5018143;28;20559;-82
2024/03/05 05:02:06;;;;;;;36.50;19.67;;;;;;;7.33;91.42;95191.78;5018245;28;20180;-82
2024/03/05 05:04:37;;;;;;;41.07;21.47;;;;;;;7.32;91.27;95190.13;5008239;28;20222;-82
2024/03/05 05:07:08;;;;;;;41.93;21.87;;;;;;;7.36;91.28;95188.09;5010624;28;20182;-83
2024/03/05 05:09:35;;;;;;;35.97;21.00;;;;;;;7.39;90.78;95182.66;5004968;28;20713;-83
2024/03/05 05:12:02;;;;;;;44.20;24.63;;;;;;;7.36;90.91;95182.94;5010292;28;20194;-82
2024/03/05 05:14:27;;;;;;;52.53;29.77;;;;;;;7.34;91.15;95184.84;5018547;28;20205;-82
2024/03/05 05:16:54;;;;;;;48.43;27.00;;;;;;;7.37;91.02;95179.38;5020987;28;20274;-82
2024/03/05 05:19:20;;;;;;;47.33;28.23;;;;;;;7.32;91.15;95186.72;5023100;28;20472;-82
2024/03/05 05:21:45;;;;;;;42.27;26.43;;;;;;;7.29;91.51;95190.41;5005165;28;20249;-82
2024/03/05 05:24:11;;;;;;;49.10;24.00;;;;;;;7.25;91.40;95188.25;5009463;28;20344;-82
2024/03/05 05:26:38;;;;;;;37.97;21.43;;;;;;;7.26;91.85;95197.63;5010684;28;20674;-83
2024/03/05 05:29:03;;;;;;;35.27;20.47;;;;;;;7.26;91.85;95193.25;5012069;28;20174;-82
2024/03/05 05:31:29;;;;;;;39.03;20.50;;;;;;;7.33;91.64;95193.50;5008028;28;20182;-82
2024/03/05 05:33:55;;;;;;;38.10;20.97;;;;;;;7.33;91.56;95198.69;5008368;28;20183;-82
2024/03/05 05:36:20;;;;;;;108.47;56.40;;;;;;;7.30;91.76;95192.03;5022343;28;20730;-82
2024/03/05 05:38:48;;;;;;;90.33;51.23;;;;;;;7.30;91.54;95188.63;5005505;28;20194;-82
2024/03/05 05:41:14;;;;;;;58.23;31.80;;;;;;;7.30;91.66;95186.88;5006893;28;20740;-85
2024/03/05 05:43:40;;;;;;;48.10;28.03;;;;;;;7.22;91.69;95189.31;5004793;28;20306;-83
2024/03/05 05:46:14;;;;;;;39.97;22.03;;;;;;;7.21;91.90;95190.25;5010401;28;20732;-82
2024/03/05 05:48:42;;;;;;;35.40;19.73;;;;;;;7.31;91.45;95193.66;5023331;28;20187;-83
2024/03/05 05:51:10;;;;;;;37.20;20.87;;;;;;;7.23;91.13;95192.69;5020133;28;20202;-83
2024/03/05 05:53:35;;;;;;;37.60;21.97;;;;;;;7.21;91.37;95200.59;5003935;28;20576;-82
2024/03/05 05:56:01;;;;;;;45.10;24.03;;;;;;;7.25;91.64;95191.63;5007919;28;20261;-83
2024/03/05 05:58:26;;;;;;;40.00;24.67;;;;;;;7.20;91.62;95188.63;5024780;28;20200;-83
2024/03/05 06:00:52;;;;;;;39.20;23.00;;;;;;;7.26;91.71;95193.25;5021047;28;20562;-83
2024/03/05 06:03:18;;;;;;;39.40;21.90;;;;;;;7.27;91.21;95194.06;5002703;28;20576;-83
2024/03/05 06:05:45;;;;;;;35.63;20.83;;;;;;;7.32;91.21;95195.28;5010872;28;20205;-83
2024/03/05 06:08:10;;;;;;;33.10;18.53;;;;;;;7.41;90.91;95195.41;5001320;28;20179;-84
2024/03/05 06:10:41;;;;;;;34.03;18.93;;;;;;;7.41;90.46;95200.59;5005810;28;20241;-82
2024/03/05 06:13:07;;;;;;;35.27;18.93;;;;;;;7.33;90.80;95198.69;5010549;28;20163;-84
2024/03/05 06:15:33;;;;;;;32.53;18.73;;;;;;;7.34;91.26;95200.34;5011659;28;20327;-81
2024/03/05 06:17:59;;;;;;;34.40;19.37;;;;;;;7.34;90.86;95208.91;5019187;28;20198;-82
2024/03/05 06:20:27;;;;;;;31.97;18.03;;;;;;;7.38;90.78;95206.84;5021477;28;20260;-83
2024/03/05 06:22:52;;;;;;;31.63;18.13;;;;;;;7.36;90.96;95209.56;5023008;28;20205;-82
2024/03/05 06:25:18;;;;;;;31.67;18.13;;;;;;;7.31;90.89;95214.31;5014258;28;20198;-81
2024/03/05 06:27:43;;;;;;;31.50;18.10;;;;;;;7.25;91.44;95216.66;5021368;28;20180;-82
2024/03/05 06:30:17;;;;;;;28.50;16.77;;;;;;;7.17;92.06;95221.66;5022658;28;20192;-80
2024/03/05 06:32:47;;;;;;;31.87;17.00;;;;;;;7.25;91.81;95216.66;5029166;28;20262;-84
2024/03/05 06:35:17;;;;;;;30.70;18.60;;;;;;;7.17;92.22;95222.50;5015975;28;20680;-83
2024/03/05 06:37:43;;;;;;;34.53;17.67;;;;;;;7.25;91.76;95225.22;5025251;28;20187;-83
2024/03/05 06:40:10;;;;;;;38.87;19.00;;;;;;;7.18;92.20;95228.47;5013828;28;20318;-83
2024/03/05 06:42:39;;;;;;;37.17;19.67;;;;;;;7.25;92.35;95226.97;5019541;28;20228;-83
2024/03/05 06:45:08;;;;;;;38.40;20.00;;;;;;;7.27;92.29;95225.06;5005265;28;20238;-84
2024/03/05 06:47:38;;;;;;;33.47;17.90;;;;;;;7.31;92.58;95231.59;5021838;28;20182;-83
2024/03/05 06:50:10;;;;;;;34.30;18.73;;;;;;;7.35;92.21;95223.44;5024844;28;20187;-83
2024/03/05 06:58:04;;;;;;;65.27;34.50;;;;;;;7.31;92.40;95244.50;5022345;28;20190;-83
2024/03/05 07:00:30;;;;;;;64.57;42.40;;;;;;;7.34;92.55;95244.25;5024371;28;20170;-84
2024/03/05 07:02:55;;;;;;;39.87;25.40;;;;;;;7.36;92.63;95250.91;5011077;28;20199;-83
2024/03/05 07:05:22;;;;;;;29.90;19.20;;;;;;;7.29;92.54;95246.41;5007093;28;20261;-83
2024/03/05 07:07:50;;;;;;;35.60;27.83;;;;;;;7.21;93.02;95246.25;5011918;28;20241;-83
2024/03/05 07:10:21;;;;;;;48.70;42.73;;;;;;;7.27;92.53;95245.75;5021333;28;20183;-83
2024/03/05 07:12:48;;;;;;;26.87;17.03;;;;;;;7.25;92.53;95251.03;5018270;28;20234;-83
2024/03/05 07:15:14;;;;;;;22.40;13.93;;;;;;;7.28;92.66;95252.53;5022708;28;20301;-83
2024/03/05 07:17:43;;;;;;;29.70;19.87;;;;;;;7.32;92.55;95252.13;5028107;28;20638;-83
2024/03/05 07:20:18;;;;;;;23.80;16.50;;;;;;;7.38;92.61;95261.91;5009832;28;20237;-83
2024/03/05 07:22:47;;;;;;;18.27;11.80;;;;;;;7.43;92.21;95253.78;5003273;28;20241;-81
2024/03/05 07:25:14;;;;;;;20.27;11.53;;;;;;;7.39;92.18;95249.81;5012477;28;20210;-82
2024/03/05 07:27:49;;;;;;;17.07;11.30;;;;;;;7.43;92.08;95258.13;5013671;28;20863;-83
2024/03/05 07:30:19;;;;;;;16.53;10.90;;;;;;;7.37;92.03;95256.88;5012077;28;20171;-84
2024/03/05 07:32:46;;;;;;;19.17;11.10;;;;;;;7.20;92.23;95257.53;5023565;28;20262;-82
2024/03/05 07:35:12;;;;;;;17.27;11.60;;;;;;;7.32;92.17;95259.84;5018616;28;20203;-83
2024/03/05 07:37:39;;;;;;;13.50;9.30;;;;;;;7.32;92.04;95257.28;5019552;28;20181;-83
2024/03/05 07:40:16;;;;;;;13.73;8.70;;;;;;;7.31;91.91;95258.22;5016087;28;20197;-83
2024/03/05 07:42:47;;;;;;;11.13;8.17;;;;;;;7.32;91.77;95265.03;5024513;28;20207;-83
2024/03/05 07:45:15;;;;;;;11.20;8.17;;;;;;;7.27;91.20;95263.81;5008229;28;20213;-82
2024/03/05 07:47:41;;;;;;;11.67;7.57;;;;;;;7.33;91.39;95266.69;5013094;28;20172;-81
2024/03/05 07:50:11;;;;;;;10.23;7.07;;;;;;;7.36;90.66;95274.16;5020902;28;20726;-83
2024/03/05 07:52:36;;;;;;;11.20;6.53;;;;;;;7.37;90.78;95273.19;5019239;28;20189;-83
2024/03/05 07:55:03;;;;;;;11.13;7.23;;;;;;;7.36;90.45;95273.34;5013237;28;20207;-83
2024/03/05 07:57:29;;;;;;;22.97;16.77;;;;;;;7.35;90.12;95262.19;5020289;28;20183;-83
2024/03/05 07:59:54;;;;;;;12.77;10.07;;;;;;;7.48;90.44;95267.09;5021572;28;20187;-81
2024/03/05 08:02:20;;;;;;;10.03;8.20;;;;;;;7.48;89.95;95269.66;5019850;28;20261;-83
2024/03/05 08:04:45;;;;;;;21.67;19.60;;;;;;;7.32;89.25;95275.34;5017086;28;20207;-82
2024/03/05 08:07:11;;;;;;;9.93;8.90;;;;;;;7.36;89.53;95274.16;5009732;28;20182;-82
2024/03/05 08:09:36;;;;;;;9.33;5.50;;;;;;;7.43;89.39;95277.03;5020986;28;20193;-83
2024/03/05 08:12:02;;;;;;;10.00;8.10;;;;;;;7.42;89.56;95275.41;5008207;28;20194;-82
2024/03/05 08:14:28;;;;;;;10.17;6.67;;;;;;;7.55;89.11;95281.09;5008058;28;20203;-84
2024/03/05 08:16:54;;;;;;;10.07;7.03;;;;;;;7.45;89.01;95274.31;5016906;28;20709;-82
2024/03/05 08:19:19;;;;;;;8.23;7.37;;;;;;;7.54;88.75;95278.66;5004319;28;20187;-84
2024/03/05 08:21:45;;;;;;;11.17;8.33;;;;;;;7.55;88.51;95280.28;5019040;28;20201;-84
2024/03/05 08:24:11;;;;;;;10.13;6.63;;;;;;;7.47;88.34;95283.53;5018614;28;20854;-82
2024/03/05 08:26:36;;;;;;;9.37;7.27;;;;;;;7.58;88.49;95285.16;5013770;28;20270;-82
2024/03/05 08:29:02;;;;;;;8.40;6.97;;;;;;;7.63;88.25;95288.19;5011963;28;20256;-82
2024/03/05 08:31:28;;;;;;;9.73;5.73;;;;;;;7.72;88.11;95286.53;5014687;28;20187;-83
2024/03/05 08:33:53;;;;;;;7.53;4.97;;;;;;;7.71;88.00;95285.72;5020520;28;20211;-83
2024/03/05 08:36:21;;;;;;;7.77;5.40;;;;;;;7.74;88.08;95289.81;5023211;28;20206;-82
2024/03/05 08:38:47;;;;;;;7.63;5.50;;;;;;;7.70;88.28;95293.63;5021582;28;20183;-82
2024/03/05 08:41:12;;;;;;;10.17;5.43;;;;;;;7.70;87.86;95288.47;5010422;28;20260;-84
2024/03/05 08:43:37;;;;;;;7.67;5.67;;;;;;;7.81;87.77;95293.47;5011478;28;20204;-86
2024/03/05 08:46:04;;;;;;;8.33;5.90;;;;;;;7.95;87.33;95290.47;5010943;28;20688;-84
2024/03/05 08:48:30;;;;;;;7.80;5.47;;;;;;;7.88;87.76;95287.63;5024313;28;20190;-85
2024/03/05 08:50:57;;;;;;;10.10;8.03;;;;;;;8.02;87.23;95290.72;5019418;28;20577;-84
2024/03/05 08:53:23;;;;;;;6.77;5.37;;;;;;;8.02;86.03;95288.97;5005995;28;20179;-84
2024/03/05 08:55:48;;;;;;;7.77;5.87;;;;;;;7.99;85.75;95291.03;5008400;28;20214;-85
2024/03/05 08:58:14;;;;;;;7.90;6.07;;;;;;;8.13;85.53;95293.19;5002843;28;20191;-86
2024/03/05 09:00:39;;;;;;;7.37;5.73;;;;;;;8.12;85.50;95296.69;5005349;28;20178;-84
2024/03/05 09:03:07;;;;;;;6.17;5.07;;;;;;;8.17;86.08;95297.13;5017630;28;20203;-85
2024/03/05 09:05:33;;;;;;;7.97;5.33;;;;;;;8.31;86.01;95296.69;5019448;28;20908;-85
2024/03/05 09:07:58;;;;;;;7.50;4.83;;;;;;;8.13;86.08;95298.38;5022981;28;20186;-86
2024/03/05 09:10:23;;;;;;;5.70;4.93;;;;;;;8.18;86.45;95299.56;5016897;28;20185;-85
2024/03/05 09:12:49;;;;;;;7.23;5.23;;;;;;;8.26;86.05;95292.88;5005705;28;20187;-85
2024/03/05 09:15:15;;;;;;;8.50;5.43;;;;;;;8.17;86.28;95303.09;5023249;28;20207;-85
2024/03/05 09:17:41;;;;;;;7.33;5.30;;;;;;;8.08;86.05;95303.94;5021737;28;20659;-87
2024/03/05 09:20:16;;;;;;;6.27;5.17;;;;;;;8.22;86.59;95300.13;4999415;28;20179;-86
2024/03/05 09:22:45;;;;;;;5.33;4.30;;;;;;;8.23;85.98;95307.72;5020970;28;20200;-86
2024/03/05 09:25:12;;;;;;;5.63;4.43;;;;;;;8.21;85.34;95299.28;5011505;28;20337;-85
2024/03/05 09:27:38;;;;;;;7.70;4.83;;;;;;;8.13;85.51;95301.75;5020564;28;20183;-85
2024/03/05 09:30:08;;;;;;;6.83;5.30;;;;;;;8.09;86.53;95302.16;5011044;28;20214;-85
2024/03/05 09:32:34;;;;;;;7.17;4.97;;;;;;;8.07;86.41;95307.47;5012800;28;20246;-85
2024/03/05 09:35:00;;;;;;;7.70;5.30;;;;;;;8.00;86.58;95308.16;5005349;28;20846;-85
2024/03/05 09:37:28;;;;;;;6.37;5.37;;;;;;;7.95;86.79;95311.16;5027535;28;20189;-84
2024/03/05 09:39:54;;;;;;;9.33;6.10;;;;;;;7.93;87.15;95306.13;5016144;28;20178;-85
2024/03/05 09:42:20;;;;;;;7.30;5.53;;;;;;;7.81;87.60;95311.56;5020789;28;20205;-85
2024/03/05 09:44:48;;;;;;;6.07;4.77;;;;;;;7.60;88.21;95319.47;5012337;28;20214;-85
2024/03/05 09:47:15;;;;;;;5.57;4.60;;;;;;;7.51;88.77;95317.66;5022542;28;20591;-84
2024/03/05 09:49:42;;;;;;;7.00;5.03;;;;;;;7.46;88.77;95315.50;5014494;28;20220;-86
2024/03/05 09:52:09;;;;;;;5.70;4.60;;;;;;;7.38;88.57;95320.50;5013761;28;20250;-86
2024/03/05 09:54:36;;;;;;;6.33;4.83;;;;;;;7.60;87.58;95325.47;5020006;28;20209;-86
2024/03/05 09:57:04;;;;;;;6.07;4.33;;;;;;;7.69;87.19;95320.44;5013724;28;20313;-85
2024/03/05 09:59:29;;;;;;;5.37;4.60;;;;;;;7.88;86.53;95323.81;5012380;28;20664;-85
2024/03/05 10:01:55;;;;;;;6.17;4.80;;;;;;;8.21;85.94;95322.56;5013893;28;20208;-85
2024/03/05 10:04:22;;;;;;;4.97;4.47;;;;;;;8.47;85.35;95320.22;5011649;28;20210;-84
2024/03/05 10:06:48;;;;;;;4.23;3.70;;;;;;;8.38;82.94;95326.22;5017543;28;20210;-84
2024/03/05 10:09:14;;;;;;;4.03;3.33;;;;;;;8.57;82.84;95320.22;5018956;28;20289;-84
2024/03/05 10:11:43;;;;;;;4.53;3.60;;;;;;;8.56;82.36;95318.56;5017666;28;20245;-83
2024/03/05 10:14:10;;;;;;;5.03;4.00;;;;;;;8.55;82.79;95326.47;5018335;28;20183;-85
2024/03/05 10:16:36;;;;;;;3.57;3.10;;;;;;;8.59;82.05;95327.84;5007304;28;20189;-84
2024/03/05 10:19:15;;;;;;;6.00;3.97;;;;;;;8.68;81.78;95322.63;5011068;28;20194;-84
2024/03/05 10:21:41;;;;;;;4.67;4.00;;;;;;;8.56;82.03;95328.09;5010538;28;20187;-83
2024/03/05 10:24:07;;;;;;;5.57;4.63;;;;;;;8.47;82.29;95334.94;5010692;28;20203;-84
2024/03/05 10:26:33;;;;;;;6.10;4.63;;;;;;;8.53;81.36;95334.38;5026214;28;20190;-83
2024/03/05 10:29:00;;;;;;;12.53;7.53;;;;;;;8.47;81.74;95345.28;5006282;28;20198;-85
2024/03/05 10:31:27;;;;;;;42.63;20.30;;;;;;;8.21;81.81;95345.84;5014708;28;20193;-84
2024/03/05 10:33:53;;;;;;;255.47;105.27;;;;;;;8.14;81.74;95334.44;5027092;28;20654;-84
2024/03/05 10:36:36;;;;;;;12.37;7.57;;;;;;;8.06;82.12;95341.25;5005861;28;20206;-85
2024/03/05 10:39:02;;;;;;;4.33;3.67;;;;;;;7.90;81.92;95341.78;5009910;28;20188;-83
2024/03/05 10:41:30;;;;;;;5.07;4.03;;;;;;;7.94;81.58;95348.31;5023764;28;20200;-83
2024/03/05 10:43:57;;;;;;;5.80;4.23;;;;;;;8.21;81.03;95343.25;5007011;28;20261;-82
2024/03/05 10:46:23;;;;;;;11.00;7.20;;;;;;;8.56;80.40;95346.22;5012367;28;20199;-83
2024/03/05 10:48:50;;;;;;;5.03;4.50;;;;;;;8.94;78.33;95342.72;5008632;28;20545;-84
2024/03/05 10:51:19;;;;;;;7.07;6.10;;;;;;;9.02;77.16;95345.41;5013927;28;20668;-86
2024/03/05 10:53:45;;;;;;;9.87;6.93;;;;;;;9.37;76.71;95342.09;5026054;28;20193;-84
2024/03/05 10:56:11;;;;;;;6.73;4.67;;;;;;;9.61;74.63;95341.53;5012114;28;20257;-83
2024/03/05 10:59:13;;;;;;;8.57;5.23;;;;;;;9.97;73.88;95346.72;5014068;28;20191;-82
2024/03/05 11:01:26;;;;;;;7.00;4.27;;;;;;;9.69;72.89;95346.78;5023514;28;20187;-82
2024/03/05 11:03:52;;;;;;;7.23;4.20;;;;;;;9.42;72.52;95347.66;5019142;28;20676;-83
2024/03/05 11:06:20;;;;;;;5.30;4.30;;;;;;;9.21;72.32;95352.28;5008347;28;20293;-83
2024/03/05 11:08:48;;;;;;;13.80;8.13;;;;;;;9.61;71.51;95351.91;5021203;28;20249;-83
2024/03/05 11:11:18;;;;;;;4.03;3.63;;;;;;;9.18;71.97;95350.75;5017697;28;20879;-83
2024/03/05 11:13:48;;;;;;;6.93;5.40;;;;;;;9.34;72.12;95345.78;5011861;28;20293;-81
2024/03/05 11:16:13;;;;;;;5.43;4.03;;;;;;;9.48;71.68;95349.66;5017489;28;20688;-83
2024/03/05 11:18:39;;;;;;;4.83;3.80;;;;;;;9.37;71.64;95349.88;5010171;28;20195;-82
2024/03/05 11:21:09;;;;;;;5.03;4.10;;;;;;;9.45;72.53;95351.72;5008616;28;20190;-83
2024/03/05 11:23:52;;;;;;;4.70;3.73;;;;;;;9.39;72.03;95345.34;5007404;28;20305;-83
2024/03/05 11:26:22;;;;;;;5.20;4.40;;;;;;;9.34;72.47;95344.97;5024776;28;20206;-82
2024/03/05 11:28:48;;;;;;;6.17;4.07;;;;;;;9.21;72.92;95347.91;5009898;28;20198;-83
2024/03/05 11:31:17;;;;;;;5.67;4.20;;;;;;;8.73;72.16;95348.06;5011347;28;20187;-82